createdAt,value
2019-01-12T00:01:19.285Z,5.75
2019-01-12T00:03:46.364Z,5.75
2019-01-12T00:06:13.324Z,5.75
2019-01-12T00:08:40.418Z,5.56
2019-01-12T00:11:07.446Z,5.56
2019-01-12T00:13:34.380Z,5.75
2019-01-12T00:16:01.342Z,5.75
2019-01-12T00:18:28.307Z,5.75
2019-01-12T00:20:56.006Z,5.75
2019-01-12T00:23:22.972Z,5.75
2019-01-12T00:25:50.497Z,5.50
2019-01-12T00:28:17.471Z,5.50
2019-01-12T00:30:44.465Z,5.62
2019-01-12T00:33:11.436Z,5.62
2019-01-12T00:35:38.889Z,5.62
2019-01-12T00:38:05.834Z,5.69
2019-01-12T00:40:33.421Z,5.50
2019-01-12T00:43:00.901Z,5.62
2019-01-12T00:45:27.913Z,5.62
2019-01-12T00:47:55.528Z,5.75
2019-01-12T00:50:30.080Z,5.87
2019-01-12T00:52:57.051Z,5.50
2019-01-12T00:55:23.993Z,5.75
2019-01-12T00:57:51.172Z,5.75
2019-01-12T01:00:20.182Z,5.56
2019-01-12T01:02:47.158Z,5.69
2019-01-12T01:05:20.886Z,5.31
2019-01-12T01:07:48.577Z,5.44
2019-01-12T01:10:18.512Z,5.62
2019-01-12T01:12:45.544Z,5.62
2019-01-12T01:15:12.570Z,5.62
2019-01-12T01:17:39.614Z,5.94
2019-01-12T01:20:08.071Z,5.94
2019-01-12T01:22:35.032Z,5.94
2019-01-12T01:25:02.063Z,5.50
2019-01-12T01:27:28.963Z,5.50
2019-01-12T01:29:55.919Z,5.56
2019-01-12T01:32:22.947Z,5.69
2019-01-12T01:34:50.285Z,5.50
2019-01-12T01:37:18.082Z,5.62
2019-01-12T01:44:41.968Z,5.50
2019-01-12T01:47:08.935Z,5.62
2019-01-12T01:49:35.853Z,5.69
2019-01-12T01:52:02.927Z,5.44
2019-01-12T01:54:30.478Z,5.44
2019-01-12T01:56:57.460Z,5.50
2019-01-12T01:59:24.480Z,5.62
2019-01-12T02:01:51.509Z,5.37
2019-01-12T02:04:18.507Z,5.69
2019-01-12T02:06:45.560Z,5.56
2019-01-12T02:09:12.525Z,5.06
2019-01-12T02:11:39.573Z,5.25
2019-01-12T02:14:07.141Z,5.37
2019-01-12T02:16:34.049Z,5.50
2019-01-12T02:19:01.017Z,5.31
2019-01-12T02:21:27.970Z,5.56
2019-01-12T02:23:55.519Z,5.56
2019-01-12T02:26:22.487Z,5.50
2019-01-12T02:28:49.408Z,5.25
2019-01-12T02:31:16.395Z,5.19
2019-01-12T02:33:43.332Z,5.19
2019-01-12T02:36:10.313Z,5.37
2019-01-12T02:38:37.253Z,5.37
2019-01-12T02:41:04.293Z,5.19
2019-01-12T02:43:31.245Z,5.50
2019-01-12T02:45:58.262Z,5.50
2019-01-12T02:48:25.157Z,5.44
2019-01-12T02:50:52.108Z,5.12
2019-01-12T02:53:19.709Z,5.25
2019-01-12T02:55:46.657Z,5.25
2019-01-12T02:58:13.583Z,5.00
2019-01-12T03:00:40.502Z,5.31
2019-01-12T03:03:07.457Z,5.25
2019-01-12T03:05:34.373Z,5.44
2019-01-12T03:08:01.306Z,5.12
2019-01-12T03:10:28.213Z,5.19
2019-01-12T03:12:55.125Z,5.37
2019-01-12T03:15:22.076Z,5.44
2019-01-12T03:17:49.001Z,5.12
2019-01-12T03:20:16.892Z,5.12
2019-01-12T03:22:43.861Z,5.31
2019-01-12T03:25:17.642Z,5.37
2019-01-12T03:27:37.784Z,5.31
2019-01-12T03:30:07.262Z,5.44
2019-01-12T03:32:34.202Z,5.06
2019-01-12T03:35:01.132Z,5.37
2019-01-12T03:37:28.092Z,5.19
2019-01-12T03:39:55.069Z,5.12
2019-01-12T03:42:22.002Z,5.37
2019-01-12T03:44:48.959Z,5.31
2019-01-12T03:47:15.888Z,5.31
2019-01-12T03:49:42.889Z,5.37
2019-01-12T03:52:24.928Z,5.31
2019-01-12T03:54:52.537Z,5.19
2019-01-12T03:57:19.457Z,5.31
2019-01-12T03:59:46.423Z,5.44
2019-01-12T04:02:13.599Z,5.19
2019-01-12T04:04:40.569Z,5.37
2019-01-12T04:07:07.854Z,5.31
2019-01-12T04:09:34.767Z,5.31
2019-01-12T04:12:01.746Z,5.12
2019-01-12T04:14:28.681Z,5.19
2019-01-12T04:16:56.731Z,5.25
2019-01-12T04:19:23.674Z,5.31
2019-01-12T04:21:50.654Z,5.31
2019-01-12T04:24:17.632Z,5.37
2019-01-12T04:26:44.604Z,5.44
2019-01-12T04:29:11.562Z,5.00
2019-01-12T04:31:39.348Z,5.37
2019-01-12T04:34:06.323Z,5.44
2019-01-12T04:36:33.449Z,5.31
2019-01-12T04:39:04.154Z,5.12
2019-01-12T04:41:31.089Z,5.25
2019-01-12T04:43:58.057Z,5.19
2019-01-12T04:46:24.998Z,5.19
2019-01-12T04:48:52.665Z,5.44
2019-01-12T04:51:19.620Z,5.37
2019-01-12T04:53:46.568Z,5.37
2019-01-12T04:56:22.751Z,5.12
2019-01-12T04:58:49.768Z,5.37
2019-01-12T05:01:16.710Z,5.50
2019-01-12T05:03:43.687Z,5.50
2019-01-12T05:06:10.678Z,5.44
2019-01-12T05:08:37.680Z,5.37
2019-01-12T05:11:05.040Z,5.25
2019-01-12T05:13:33.686Z,5.37
2019-01-12T05:16:02.174Z,5.56
2019-01-12T05:18:30.711Z,5.44
2019-01-12T05:21:00.929Z,5.25
2019-01-12T05:23:28.839Z,5.25
2019-01-12T05:25:56.203Z,5.25
2019-01-12T05:31:11.615Z,5.44
2019-01-12T05:33:39.799Z,5.56
2019-01-12T05:36:09.395Z,5.56
2019-01-12T05:43:35.737Z,5.25
2019-01-12T05:46:03.873Z,5.25
2019-01-12T05:48:32.222Z,5.44
2019-01-12T05:50:59.550Z,5.62
2019-01-12T05:53:27.219Z,5.62
2019-01-12T05:55:57.947Z,5.44
2019-01-12T05:58:26.295Z,5.56
2019-01-12T06:00:54.228Z,5.62
2019-01-12T06:03:22.372Z,5.50
2019-01-12T06:05:50.707Z,5.37
2019-01-12T06:08:17.863Z,5.25
2019-01-12T06:10:46.863Z,5.69
2019-01-12T06:13:14.071Z,5.69
2019-01-12T06:15:43.253Z,5.69
2019-01-12T06:18:11.681Z,5.62
2019-01-12T06:20:38.919Z,5.62
2019-01-12T06:23:08.317Z,5.81
2019-01-12T06:25:36.361Z,5.75
2019-01-12T06:28:03.591Z,5.50
2019-01-12T06:30:30.666Z,5.75
2019-01-12T06:32:58.393Z,5.50
2019-01-12T06:35:25.596Z,5.81
2019-01-12T06:37:53.482Z,5.81
2019-01-12T06:40:20.510Z,5.69
2019-01-12T06:42:47.936Z,5.62
2019-01-12T06:45:15.598Z,5.44
2019-01-12T06:47:43.198Z,5.62
2019-01-12T06:50:11.352Z,5.62
2019-01-12T06:52:38.381Z,5.56
2019-01-12T06:55:11.775Z,5.56
2019-01-12T06:57:39.806Z,5.44
2019-01-12T07:00:12.503Z,5.56
2019-01-12T07:02:39.650Z,5.69
2019-01-12T07:05:07.494Z,5.81
2019-01-12T07:07:34.723Z,5.75
2019-01-12T07:10:03.489Z,5.75
2019-01-12T07:12:30.787Z,5.75
2019-01-12T07:14:58.315Z,5.81
2019-01-12T07:17:28.060Z,5.81
2019-01-12T07:19:56.209Z,5.62
2019-01-12T07:22:23.589Z,5.87
2019-01-12T07:24:50.858Z,5.87
2019-01-12T07:27:19.686Z,5.44
2019-01-12T07:29:46.930Z,5.62
2019-01-12T07:32:14.364Z,5.69
2019-01-12T07:34:41.686Z,5.50
2019-01-12T07:37:08.915Z,5.50
2019-01-12T07:39:36.062Z,5.50
2019-01-12T07:42:03.350Z,5.50
2019-01-12T07:44:30.639Z,5.50
2019-01-12T07:46:57.949Z,6.00
2019-01-12T07:49:25.221Z,5.87
2019-01-12T07:51:52.515Z,5.81
2019-01-12T07:54:19.608Z,5.50
2019-01-12T07:56:47.373Z,5.44
2019-01-12T07:59:14.569Z,5.31
2019-01-12T08:01:41.991Z,5.62
2019-01-12T08:04:09.226Z,5.69
2019-01-12T08:06:36.309Z,5.25
2019-01-12T08:09:08.182Z,5.19
2019-01-12T08:11:35.360Z,5.56
2019-01-12T08:14:02.298Z,5.75
2019-01-12T08:16:29.326Z,5.81
2019-01-12T08:18:56.265Z,5.56
2019-01-12T08:21:24.432Z,5.50
2019-01-12T08:23:57.029Z,5.37
2019-01-12T08:29:07.902Z,5.44
2019-01-12T08:31:34.957Z,5.69
2019-01-12T08:34:01.899Z,5.87
2019-01-12T08:36:29.099Z,5.87
2019-01-12T08:38:57.100Z,5.62
2019-01-12T08:41:24.091Z,5.75
2019-01-12T08:43:51.633Z,5.62
2019-01-12T08:46:18.657Z,5.69
2019-01-12T08:48:46.623Z,5.62
2019-01-12T08:51:13.835Z,5.56
2019-01-12T08:53:40.889Z,5.62
2019-01-12T08:56:08.226Z,5.44
2019-01-12T08:58:35.937Z,5.94
2019-01-12T09:01:07.146Z,5.62
2019-01-12T09:03:34.105Z,5.81
2019-01-12T09:06:01.098Z,5.75
2019-01-12T09:08:28.832Z,5.62
2019-01-12T09:10:55.762Z,5.62
2019-01-12T09:13:22.728Z,5.62
2019-01-12T09:15:49.713Z,5.44
2019-01-12T09:18:16.767Z,5.44
2019-01-12T09:20:44.493Z,5.44
2019-01-12T09:23:11.468Z,5.31
2019-01-12T09:25:38.531Z,5.31
2019-01-12T09:28:06.427Z,5.31
2019-01-12T09:30:33.399Z,5.37
2019-01-12T09:33:00.373Z,5.50
2019-01-12T09:35:27.433Z,5.69
2019-01-12T09:37:54.383Z,5.69
2019-01-12T09:40:21.655Z,5.56
2019-01-12T09:42:49.603Z,5.50
2019-01-12T09:45:16.848Z,5.62
2019-01-12T09:47:43.872Z,5.75
2019-01-12T09:50:13.333Z,5.75
2019-01-12T09:52:40.352Z,5.69
2019-01-12T09:55:07.938Z,5.69
2019-01-12T09:57:34.962Z,5.56
2019-01-12T10:00:02.521Z,5.75
2019-01-12T10:02:29.528Z,6.00
2019-01-12T10:04:56.524Z,5.75
2019-01-12T10:07:23.496Z,6.06
2019-01-12T10:09:50.502Z,5.94
2019-01-12T10:12:17.492Z,5.75
2019-01-12T10:14:44.495Z,5.87
2019-01-12T10:17:12.618Z,6.00
2019-01-12T10:19:39.255Z,6.12
2019-01-12T10:22:06.332Z,6.00
2019-01-12T10:24:33.325Z,6.00
2019-01-12T10:27:00.505Z,6.00
2019-01-12T10:29:28.494Z,6.44
2019-01-12T10:31:55.538Z,6.44
2019-01-12T10:34:22.521Z,6.44
2019-01-12T10:36:49.977Z,6.19
2019-01-12T10:39:18.057Z,6.31
2019-01-12T10:41:44.486Z,6.25
2019-01-12T10:44:11.450Z,6.37
2019-01-12T10:46:38.653Z,6.37
2019-01-12T10:49:05.701Z,6.25
2019-01-12T10:51:33.129Z,6.37
2019-01-12T10:54:00.348Z,6.56
2019-01-12T10:56:27.349Z,6.37
2019-01-12T10:58:54.948Z,6.50
2019-01-12T11:01:22.006Z,6.44
2019-01-12T11:03:49.085Z,6.25
2019-01-12T11:06:16.112Z,6.56
2019-01-12T11:08:47.990Z,6.44
2019-01-12T11:11:15.225Z,6.50
2019-01-12T11:13:42.381Z,6.31
2019-01-12T11:16:10.350Z,6.44
2019-01-12T11:18:37.420Z,6.56
2019-01-12T11:21:04.428Z,6.56
2019-01-12T11:23:31.430Z,6.31
2019-01-12T11:25:58.561Z,6.31
2019-01-12T11:28:25.571Z,6.50
2019-01-12T11:30:52.804Z,6.31
2019-01-12T11:33:19.798Z,6.31
2019-01-12T11:35:47.344Z,6.44
2019-01-12T11:38:14.393Z,6.31
2019-01-12T11:40:41.386Z,6.37
2019-01-12T11:43:09.107Z,6.37
2019-01-12T11:45:36.115Z,6.31
2019-01-12T11:48:03.094Z,6.44
2019-01-12T11:50:30.330Z,6.19
2019-01-12T11:52:57.441Z,6.25
2019-01-12T11:55:24.453Z,6.12
2019-01-12T11:57:52.031Z,6.50
2019-01-12T12:00:23.860Z,6.37
2019-01-12T12:02:50.990Z,6.37
2019-01-12T12:05:18.142Z,6.56
2019-01-12T12:07:48.193Z,6.25
2019-01-12T12:10:15.644Z,6.44
2019-01-12T12:12:46.620Z,6.37
2019-01-12T12:15:14.072Z,6.31
2019-01-12T12:17:42.022Z,6.31
2019-01-12T12:20:12.726Z,6.56
2019-01-12T12:22:41.403Z,6.44
2019-01-12T12:25:08.820Z,6.56
2019-01-12T12:27:41.392Z,6.50
2019-01-12T12:30:12.460Z,6.31
2019-01-12T12:32:39.488Z,6.19
2019-01-12T12:35:11.653Z,6.37
2019-01-12T12:37:41.707Z,6.37
2019-01-12T12:40:09.732Z,6.56
2019-01-12T12:45:37.127Z,6.62
2019-01-12T12:48:04.569Z,6.31
2019-01-12T12:50:33.739Z,6.31
2019-01-12T12:53:04.887Z,6.56
2019-01-12T12:55:32.077Z,6.25
2019-01-12T12:58:00.720Z,6.62
2019-01-12T13:00:30.379Z,6.50
2019-01-12T13:02:58.220Z,6.81
2019-01-12T13:05:25.992Z,6.62
2019-01-12T13:07:55.333Z,6.62
2019-01-12T13:10:25.893Z,6.56
2019-01-12T13:12:53.026Z,6.62
2019-01-12T13:15:20.085Z,6.37
2019-01-12T13:17:47.104Z,6.50
2019-01-12T13:20:16.738Z,6.56
2019-01-12T13:22:44.801Z,6.62
2019-01-12T13:25:12.064Z,6.62
2019-01-12T13:27:39.942Z,6.62
2019-01-12T13:30:12.730Z,6.56
2019-01-12T13:32:41.023Z,6.81
2019-01-12T13:35:10.873Z,6.56
2019-01-12T13:37:38.105Z,6.81
2019-01-12T13:40:06.383Z,6.50
2019-01-12T13:42:34.154Z,6.44
2019-01-12T13:45:02.702Z,6.62
2019-01-12T13:47:29.712Z,6.44
2019-01-12T13:49:57.338Z,6.50
2019-01-12T13:52:25.012Z,6.62
2019-01-12T13:54:53.003Z,6.31
2019-01-12T13:57:19.310Z,6.31
2019-01-12T13:59:46.406Z,6.25
2019-01-12T14:02:14.220Z,6.56
2019-01-12T14:04:41.267Z,6.31
2019-01-12T14:07:08.482Z,6.25
2019-01-12T14:09:36.382Z,6.19
2019-01-12T14:12:03.473Z,6.12
2019-01-12T14:14:39.946Z,6.19
2019-01-12T14:17:07.670Z,5.94
2019-01-12T14:19:34.779Z,5.87
2019-01-12T14:22:09.194Z,5.94
2019-01-12T14:24:36.206Z,6.25
2019-01-12T14:27:04.234Z,6.06
2019-01-12T14:29:31.224Z,6.06
2019-01-12T14:31:59.184Z,6.06
2019-01-12T14:34:26.319Z,5.87
2019-01-12T14:36:53.486Z,5.81
2019-01-12T14:39:21.408Z,5.81
2019-01-12T14:41:49.838Z,5.62
2019-01-12T14:44:16.860Z,5.62
2019-01-12T14:46:50.346Z,5.50
2019-01-12T14:49:18.205Z,5.69
2019-01-12T14:51:45.182Z,5.62
2019-01-12T14:54:12.251Z,5.69
2019-01-12T14:56:39.347Z,5.81
2019-01-12T14:59:06.483Z,5.50
2019-01-12T15:01:34.234Z,5.62
2019-01-12T15:04:01.839Z,5.62
2019-01-12T15:06:29.639Z,5.75
2019-01-12T15:08:56.609Z,5.69
2019-01-12T15:11:23.623Z,5.44
2019-01-12T15:13:50.699Z,5.50
2019-01-12T15:16:17.657Z,5.50
2019-01-12T15:18:44.709Z,5.62
2019-01-12T15:21:15.027Z,5.56
2019-01-12T15:23:43.112Z,5.50
2019-01-12T15:26:11.182Z,5.62
2019-01-12T15:28:38.643Z,5.62
2019-01-12T15:31:05.913Z,5.62
2019-01-12T15:33:35.042Z,5.37
2019-01-12T15:36:02.507Z,5.56
2019-01-12T15:38:29.920Z,5.56
2019-01-12T15:40:57.014Z,5.44
2019-01-12T15:43:25.181Z,5.44
2019-01-12T15:45:52.345Z,5.56
2019-01-12T15:48:20.335Z,5.37
2019-01-12T15:50:47.622Z,5.75
2019-01-12T15:53:18.165Z,5.50
2019-01-12T15:55:45.403Z,5.62
2019-01-12T15:58:16.350Z,5.62
2019-01-12T16:05:56.266Z,5.62
2019-01-12T16:08:24.971Z,5.56
2019-01-12T16:10:52.252Z,5.56
2019-01-12T16:13:19.628Z,5.56
2019-01-12T16:15:46.650Z,5.50
2019-01-12T16:18:13.622Z,5.56
2019-01-12T16:20:41.666Z,5.75
2019-01-12T16:23:10.758Z,5.56
2019-01-12T16:25:38.981Z,5.56
2019-01-12T16:28:05.306Z,5.62
2019-01-12T16:30:32.497Z,5.44
2019-01-12T16:33:00.714Z,5.62
2019-01-12T16:35:31.881Z,5.69
2019-01-12T16:38:00.918Z,5.81
2019-01-12T16:40:28.156Z,5.56
2019-01-12T16:42:55.686Z,5.50
2019-01-12T16:45:23.436Z,5.62
2019-01-12T16:47:51.197Z,5.56
2019-01-12T16:50:18.619Z,5.50
2019-01-12T16:52:45.935Z,5.56
2019-01-12T16:55:14.185Z,5.56
2019-01-12T16:57:41.440Z,5.44
2019-01-12T17:00:13.969Z,5.75
2019-01-12T17:02:41.346Z,5.62
2019-01-12T17:05:08.876Z,5.69
2019-01-12T17:07:36.786Z,5.44
2019-01-12T17:10:06.076Z,5.81
2019-01-12T17:12:33.688Z,5.69
2019-01-12T17:15:00.746Z,5.75
2019-01-12T17:17:27.855Z,5.75
2019-01-12T17:19:56.027Z,5.69
2019-01-12T17:22:25.309Z,5.56
2019-01-12T17:24:56.999Z,5.44
2019-01-12T17:30:11.195Z,5.81
2019-01-12T17:32:38.651Z,5.75
2019-01-12T17:35:07.955Z,5.62
2019-01-12T17:37:35.918Z,5.56
2019-01-12T17:40:03.225Z,5.62
2019-01-12T17:42:30.484Z,5.50
2019-01-12T17:44:57.690Z,5.62
2019-01-12T17:47:25.858Z,5.56
2019-01-12T17:49:53.515Z,5.56
2019-01-12T17:52:20.644Z,5.56
2019-01-12T17:54:47.816Z,5.87
2019-01-12T17:57:15.196Z,5.94
2019-01-12T17:59:42.585Z,5.94
2019-01-12T18:02:09.723Z,6.00
2019-01-12T18:04:37.683Z,6.00
2019-01-12T18:07:04.867Z,6.06
2019-01-12T18:09:33.976Z,6.06
2019-01-12T18:12:01.215Z,6.00
2019-01-12T18:14:28.337Z,6.12
2019-01-12T18:16:55.651Z,6.25
2019-01-12T18:19:27.291Z,5.94
2019-01-12T18:21:54.479Z,5.87
2019-01-12T18:24:22.210Z,6.19
2019-01-12T18:26:50.663Z,6.19
2019-01-12T18:29:17.973Z,6.19
2019-01-12T18:31:45.130Z,6.31
2019-01-12T18:34:12.818Z,6.12
2019-01-12T18:36:40.594Z,6.00
2019-01-12T18:39:08.606Z,6.00
2019-01-12T18:41:35.782Z,6.19
2019-01-12T18:44:03.655Z,6.31
2019-01-12T18:46:30.845Z,6.19
2019-01-12T18:48:57.925Z,6.19
2019-01-12T18:51:25.004Z,6.00
2019-01-12T18:53:51.969Z,5.94
2019-01-12T18:56:18.983Z,6.00
2019-01-12T18:58:46.633Z,5.94
2019-01-12T19:01:16.098Z,6.12
2019-01-12T19:03:44.291Z,5.87
2019-01-12T19:06:12.167Z,6.00
2019-01-12T19:08:46.309Z,6.12
2019-01-12T19:11:16.609Z,6.12
2019-01-12T19:13:43.765Z,6.06
2019-01-12T19:16:10.941Z,6.12
2019-01-12T19:18:38.046Z,5.94
2019-01-12T19:21:05.343Z,6.19
2019-01-12T19:23:32.431Z,6.06
2019-01-12T19:25:59.602Z,6.25
2019-01-12T19:28:26.730Z,6.19
2019-01-12T19:30:53.957Z,6.12
2019-01-12T19:33:20.962Z,6.06
2019-01-12T19:35:48.143Z,5.94
2019-01-12T19:38:15.359Z,6.00
2019-01-12T19:40:43.011Z,6.19
2019-01-12T19:43:10.845Z,6.00
2019-01-12T19:45:38.093Z,6.06
2019-01-12T19:48:06.071Z,6.00
2019-01-12T19:50:33.886Z,6.00
2019-01-12T19:53:01.349Z,6.00
2019-01-12T19:55:28.934Z,6.06
2019-01-12T19:57:57.616Z,6.12
2019-01-12T20:00:28.404Z,6.25
2019-01-12T20:02:56.555Z,6.12
2019-01-12T20:05:24.978Z,6.31
2019-01-12T20:07:55.167Z,6.19
2019-01-12T20:10:22.550Z,6.37
2019-01-12T20:12:51.942Z,6.06
2019-01-12T20:15:21.855Z,6.19
2019-01-12T20:17:50.106Z,6.12
2019-01-12T20:20:17.537Z,6.12
2019-01-12T20:22:50.434Z,6.31
2019-01-12T20:25:22.102Z,6.56
2019-01-12T20:27:51.363Z,6.25
2019-01-12T20:30:27.294Z,6.25
2019-01-12T20:33:22.678Z,6.37
2019-01-12T20:36:04.599Z,6.50
2019-01-12T20:38:45.040Z,6.37
2019-01-12T20:41:21.466Z,6.31
2019-01-12T20:44:09.597Z,6.31
2019-01-12T20:46:46.929Z,6.31
2019-01-12T20:50:25.397Z,6.19
2019-01-12T20:53:22.208Z,6.19
2019-01-12T20:56:00.340Z,6.12
2019-01-12T20:58:45.146Z,6.31
2019-01-12T21:01:24.768Z,6.37
2019-01-12T21:04:06.212Z,6.37
2019-01-12T21:06:50.988Z,6.37
2019-01-12T21:09:42.840Z,6.25
2019-01-12T21:14:27.102Z,6.37
2019-01-12T21:17:36.848Z,6.12
2019-01-12T21:20:05.639Z,6.25
2019-01-12T21:27:31.238Z,6.37
2019-01-12T21:29:58.246Z,6.19
2019-01-12T21:32:25.401Z,6.25
2019-01-12T21:34:53.795Z,6.44
2019-01-12T21:37:24.186Z,6.37
2019-01-12T21:43:00.456Z,6.06
2019-01-12T21:45:28.437Z,6.06
2019-01-12T21:47:56.765Z,6.06
2019-01-12T21:50:24.252Z,6.12
2019-01-12T21:52:51.410Z,6.25
2019-01-12T21:55:18.510Z,6.25
2019-01-12T21:57:45.549Z,6.37
2019-01-12T22:00:14.761Z,6.12
2019-01-12T22:02:41.950Z,6.12
2019-01-12T22:05:09.434Z,6.25
2019-01-12T22:07:36.497Z,6.25
2019-01-12T22:10:04.671Z,6.25
2019-01-12T22:12:32.145Z,6.25
2019-01-12T22:14:59.242Z,6.25
2019-01-12T22:17:26.345Z,6.50
2019-01-12T22:19:54.262Z,6.44
2019-01-12T22:22:21.343Z,6.44
2019-01-12T22:24:48.401Z,6.50
2019-01-12T22:27:15.334Z,6.50
2019-01-12T22:29:49.616Z,6.37
2019-01-12T22:32:09.484Z,6.62
2019-01-12T22:34:37.716Z,6.44
2019-01-12T22:37:06.096Z,6.31
2019-01-12T22:39:33.599Z,6.31
2019-01-12T22:42:01.945Z,6.44
2019-01-12T22:44:29.014Z,6.37
2019-01-12T22:46:56.256Z,6.56
2019-01-12T22:49:23.308Z,6.62
2019-01-12T22:51:51.353Z,6.31
2019-01-12T22:54:18.313Z,6.31
2019-01-12T22:56:45.314Z,6.31
2019-01-12T22:59:12.307Z,6.31
2019-01-12T23:01:44.863Z,6.62
2019-01-12T23:04:14.067Z,6.62
2019-01-12T23:06:41.687Z,6.62
2019-01-12T23:09:11.162Z,6.62
2019-01-12T23:11:37.635Z,6.44
2019-01-12T23:14:04.635Z,6.44
2019-01-12T23:16:31.600Z,6.44
2019-01-12T23:18:58.575Z,6.56
2019-01-12T23:21:25.636Z,6.56
2019-01-12T23:23:52.624Z,6.50
2019-01-12T23:26:19.638Z,6.62
2019-01-12T23:28:46.616Z,6.50
2019-01-12T23:31:13.622Z,6.50
2019-01-12T23:33:40.678Z,6.62
2019-01-12T23:36:07.783Z,6.56
2019-01-12T23:38:34.761Z,6.56
2019-01-12T23:41:01.753Z,6.56
2019-01-12T23:43:28.759Z,6.69
2019-01-12T23:45:55.693Z,6.69
2019-01-12T23:48:22.654Z,6.69
2019-01-12T23:50:49.669Z,6.56
2019-01-12T23:53:16.695Z,6.62
2019-01-12T23:55:43.653Z,6.62
2019-01-12T23:58:10.677Z,6.56
